Time;durP1;ratioP1;P1;durP2;ratioP2;P2;SDS_P1;SDS_P2;PMS_P1;PMS_P2;Temp;Humidity;BMP_temperature;BMP_pressure;BME280_temperature;BME280_humidity;BME280_pressure;Samples;Min_cycle;Max_cycle;Signal;HPM_P1;HPM_P2
2022/09/02 00:02:12;;;;;;;17.63;10.32;;;;;;;19.21;86.36;94305.25;5112413;28;20602;-78
2022/09/02 00:04:40;;;;;;;13.85;9.27;;;;;;;19.25;86.20;94303.31;5112518;28;20692;-78
2022/09/02 00:07:07;;;;;;;10.88;9.00;;;;;;;19.29;86.21;94309.56;5113220;28;20214;-78
2022/09/02 00:09:36;;;;;;;12.80;8.68;;;;;;;19.28;86.44;94303.28;5113395;28;20205;-78
2022/09/02 00:12:05;;;;;;;14.52;10.98;;;;;;;19.38;85.84;94307.25;5112909;28;20201;-78
2022/09/02 00:14:35;;;;;;;15.05;9.57;;;;;;;19.36;86.08;94310.38;5112969;28;20248;-78
2022/09/02 00:17:03;;;;;;;15.68;9.52;;;;;;;19.34;85.42;94312.72;5112912;28;20267;-78
2022/09/02 00:19:31;;;;;;;18.42;9.88;;;;;;;19.34;86.01;94312.72;5113082;28;20205;-78
2022/09/02 00:22:01;;;;;;;19.02;12.80;;;;;;;19.19;86.09;94322.13;5113137;28;20589;-78
2022/09/02 00:24:28;;;;;;;18.15;13.57;;;;;;;19.28;86.14;94316.25;5112924;28;20231;-78
2022/09/02 00:26:56;;;;;;;12.48;9.30;;;;;;;19.24;85.63;94312.72;5113055;28;20287;-78
2022/09/02 00:29:22;;;;;;;15.93;9.73;;;;;;;19.13;85.71;94324.47;5112345;28;20201;-78
2022/09/02 00:31:49;;;;;;;12.05;9.25;;;;;;;19.23;85.14;94333.13;5112852;28;20633;-78
2022/09/02 00:34:16;;;;;;;16.88;10.55;;;;;;;19.25;85.21;94330.78;5112842;28;20232;-78
2022/09/02 00:36:43;;;;;;;15.32;9.55;;;;;;;19.24;84.96;94340.19;5112231;28;20449;-78
2022/09/02 00:39:11;;;;;;;16.15;10.48;;;;;;;19.23;85.73;94338.63;5112723;28;20201;-78
2022/09/02 00:41:41;;;;;;;18.33;12.75;;;;;;;19.16;85.77;94329.19;5112478;28;20271;-78
2022/09/02 00:44:11;;;;;;;14.10;9.93;;;;;;;19.14;85.79;94342.50;5112618;28;20664;-77
2022/09/02 00:46:38;;;;;;;17.98;10.25;;;;;;;19.13;85.85;94342.94;5111752;28;20182;-77
2022/09/02 00:49:09;;;;;;;17.08;9.98;;;;;;;19.14;85.63;94331.53;5111615;28;20233;-77
2022/09/02 00:51:41;;;;;;;14.70;9.85;;;;;;;19.11;86.02;94332.31;5112409;28;20214;-78
2022/09/02 00:54:10;;;;;;;18.38;12.82;;;;;;;19.14;85.75;94337.00;5112171;28;20648;-78
2022/09/02 00:56:40;;;;;;;20.35;14.27;;;;;;;19.23;85.86;94339.41;5111973;28;20553;-77
2022/09/02 00:59:08;;;;;;;14.82;10.32;;;;;;;19.20;85.83;94340.19;5111864;28;20255;-78
2022/09/02 01:01:35;;;;;;;17.35;13.93;;;;;;;19.24;85.87;94351.19;5110384;28;20193;-78
2022/09/02 01:04:02;;;;;;;15.25;10.43;;;;;;;19.24;86.04;94340.19;5111102;28;20202;-77
2022/09/02 01:06:31;;;;;;;16.35;9.98;;;;;;;19.27;85.82;94344.91;5110835;28;20270;-78
2022/09/02 01:09:03;;;;;;;12.73;9.05;;;;;;;19.36;85.08;94334.31;5111155;28;20675;-78
2022/09/02 01:11:39;;;;;;;15.52;10.38;;;;;;;19.38;85.08;94337.47;5111821;28;20204;-78
2022/09/02 01:14:08;;;;;;;13.15;9.55;;;;;;;19.39;84.75;94336.28;5112207;28;20239;-78
2022/09/02 01:16:41;;;;;;;15.52;10.35;;;;;;;19.39;84.84;94344.53;5111843;28;20260;-78
2022/09/02 01:19:15;;;;;;;18.20;13.45;;;;;;;19.31;84.81;94340.97;5111922;28;20223;-78
2022/09/02 01:21:47;;;;;;;15.15;9.20;;;;;;;19.33;84.58;94332.34;5111393;28;20250;-78
2022/09/02 01:24:14;;;;;;;16.90;12.70;;;;;;;19.33;84.27;94348.84;5111272;28;20286;-78
2022/09/02 01:26:41;;;;;;;17.52;13.27;;;;;;;19.26;84.95;94343.34;5111651;28;20294;-78
2022/09/02 01:29:08;;;;;;;17.83;13.35;;;;;;;19.30;85.14;94349.59;5111555;28;20226;-77
2022/09/02 01:31:35;;;;;;;17.58;12.75;;;;;;;19.36;84.72;94337.06;5110837;28;20198;-78
2022/09/02 01:34:02;;;;;;;10.90;8.00;;;;;;;19.39;83.68;94336.28;5111042;28;20310;-77
2022/09/02 01:36:29;;;;;;;5.45;4.20;;;;;;;19.40;83.48;94327.66;5111205;28;20225;-74
2022/09/02 01:38:57;;;;;;;8.05;6.20;;;;;;;19.39;83.52;94319.81;5111198;28;20669;-77
2022/09/02 01:41:24;;;;;;;12.55;8.90;;;;;;;19.35;83.85;94314.31;5111163;28;20283;-73
2022/09/02 01:43:51;;;;;;;11.02;6.45;;;;;;;19.28;84.40;94303.28;5111059;28;20225;-77
2022/09/02 01:46:19;;;;;;;7.05;5.45;;;;;;;19.18;84.54;94299.38;5111084;28;20672;-75
2022/09/02 01:48:46;;;;;;;7.57;4.20;;;;;;;19.08;84.38;94289.16;5110949;28;20233;-78
2022/09/02 01:51:16;;;;;;;7.45;4.40;;;;;;;18.99;85.43;94297.00;5111555;28;20194;-77
2022/09/02 01:53:43;;;;;;;6.82;4.68;;;;;;;18.87;85.97;94289.09;5111522;28;20234;-76
2022/09/02 01:56:11;;;;;;;5.70;3.95;;;;;;;18.78;85.34;94291.44;5111411;28;20290;-78
2022/09/02 01:58:38;;;;;;;6.85;5.82;;;;;;;18.79;85.73;94282.03;5111178;28;20201;-78
2022/09/02 02:01:05;;;;;;;7.55;4.65;;;;;;;18.80;85.35;94283.59;5110485;28;20200;-78
2022/09/02 02:03:32;;;;;;;5.63;4.18;;;;;;;18.88;84.87;94279.69;5110542;28;20201;-78
2022/09/02 02:05:59;;;;;;;6.63;4.57;;;;;;;18.83;84.50;94277.34;5110844;28;20622;-78
2022/09/02 02:08:26;;;;;;;6.05;4.43;;;;;;;18.74;84.90;94277.69;5110729;28;20205;-78
2022/09/02 02:10:53;;;;;;;7.25;4.82;;;;;;;18.74;84.89;94285.16;5111419;28;20228;-79
2022/09/02 02:13:21;;;;;;;8.05;5.47;;;;;;;18.79;85.11;94287.53;5110565;28;20300;-78
2022/09/02 02:15:48;;;;;;;6.47;4.28;;;;;;;18.82;84.24;94281.25;5111047;28;20770;-79
2022/09/02 02:18:16;;;;;;;5.53;4.40;;;;;;;18.83;84.64;94293.81;5110678;28;20254;-79
2022/09/02 02:20:43;;;;;;;6.05;3.60;;;;;;;18.75;84.12;94286.72;5110916;28;20230;-79
2022/09/02 02:23:10;;;;;;;4.63;3.20;;;;;;;18.71;84.22;94286.72;5110751;28;20605;-78
2022/09/02 02:25:37;;;;;;;5.20;3.88;;;;;;;18.83;83.60;94287.53;5110511;28;20620;-78
2022/09/02 02:28:05;;;;;;;4.05;3.30;;;;;;;18.76;83.93;94288.28;5110807;28;20332;-78
2022/09/02 02:30:33;;;;;;;4.78;3.75;;;;;;;18.80;83.51;94295.38;5110939;28;20194;-79
2022/09/02 02:33:00;;;;;;;4.88;3.10;;;;;;;18.70;83.83;94296.13;5109879;28;20688;-78
2022/09/02 02:35:27;;;;;;;5.45;3.45;;;;;;;18.63;84.04;94296.09;5110499;28;20229;-79
2022/09/02 02:37:55;;;;;;;6.03;3.38;;;;;;;18.69;83.43;94300.03;5110642;28;20217;-78
2022/09/02 02:40:23;;;;;;;5.85;4.38;;;;;;;18.71;83.27;94296.91;5110121;28;20198;-78
2022/09/02 02:42:53;;;;;;;6.53;4.45;;;;;;;18.76;83.15;94310.25;5110097;28;20221;-78
2022/09/02 02:45:20;;;;;;;5.57;3.55;;;;;;;18.74;82.84;94307.88;5110267;28;20767;-78
2022/09/02 02:47:49;;;;;;;5.10;3.28;;;;;;;18.75;82.98;94308.69;5110297;28;20270;-78
2022/09/02 02:50:19;;;;;;;6.60;4.40;;;;;;;18.79;82.39;94304.00;5109783;28;20571;-78
2022/09/02 02:52:47;;;;;;;6.03;3.20;;;;;;;18.83;82.60;94304.78;5110089;28;20206;-78
2022/09/02 02:55:15;;;;;;;5.30;3.35;;;;;;;18.72;83.11;94293.00;5110102;28;20324;-77
2022/09/02 02:57:43;;;;;;;5.47;3.72;;;;;;;18.74;83.34;94304.34;5110260;28;20206;-78
2022/09/02 03:00:14;;;;;;;5.80;3.80;;;;;;;18.83;83.13;94299.31;5110054;28;20709;-78
2022/09/02 03:02:41;;;;;;;6.45;3.67;;;;;;;18.86;83.20;94304.00;5109577;28;20294;-78
2022/09/02 03:05:13;;;;;;;5.72;3.42;;;;;;;18.87;83.76;94313.81;5109807;28;20220;-78
2022/09/02 03:07:40;;;;;;;4.10;3.30;;;;;;;18.83;83.49;94310.28;5110152;28;20217;-78
2022/09/02 03:10:09;;;;;;;4.15;3.00;;;;;;;18.72;83.67;94306.72;5109505;28;20209;-79
2022/09/02 03:12:37;;;;;;;4.13;3.38;;;;;;;18.71;84.24;94303.19;5110421;28;20228;-78
2022/09/02 03:15:05;;;;;;;5.15;3.92;;;;;;;18.62;84.89;94300.00;5109746;28;20630;-78
2022/09/02 03:17:32;;;;;;;4.88;3.80;;;;;;;18.46;86.31;94305.00;5110164;28;20593;-78
2022/09/02 03:20:00;;;;;;;5.68;4.13;;;;;;;18.46;86.49;94305.78;5109955;28;20209;-78
2022/09/02 03:22:28;;;;;;;6.97;4.13;;;;;;;18.32;88.02;94307.69;5110311;28;20521;-78
2022/09/02 03:24:55;;;;;;;7.53;4.35;;;;;;;18.24;88.71;94293.16;5112018;28;20207;-77
2022/09/02 03:27:22;;;;;;;6.07;4.43;;;;;;;18.18;89.23;94297.41;5114283;28;20218;-78
2022/09/02 03:29:48;;;;;;;6.32;4.72;;;;;;;18.21;89.32;94302.16;5114416;28;20193;-79
2022/09/02 03:32:15;;;;;;;7.55;5.07;;;;;;;18.23;89.30;94299.03;5114650;28;20544;-78
2022/09/02 03:34:43;;;;;;;7.18;5.10;;;;;;;18.18;89.83;94302.91;5113080;27;20251;-78
2022/09/02 03:37:09;;;;;;;8.10;5.57;;;;;;;18.17;90.24;94309.59;5113083;28;20645;-79
2022/09/02 03:39:38;;;;;;;7.28;5.45;;;;;;;18.14;90.63;94313.09;5113224;28;20609;-78
2022/09/02 03:42:05;;;;;;;5.90;4.40;;;;;;;18.03;91.40;94317.72;5113507;28;20261;-78
2022/09/02 03:44:33;;;;;;;8.18;5.75;;;;;;;17.98;92.01;94312.59;5113989;28;20202;-78
2022/09/02 03:47:00;;;;;;;12.95;5.90;;;;;;;17.96;92.07;94325.88;5113684;28;20274;-78
2022/09/02 03:49:27;;;;;;;9.02;6.22;;;;;;;17.93;92.36;94337.59;5114014;28;20259;-78
2022/09/02 03:51:54;;;;;;;8.32;6.60;;;;;;;17.94;92.54;94334.50;5112577;28;20255;-78
2022/09/02 03:54:21;;;;;;;11.05;8.00;;;;;;;17.95;92.41;94338.03;5113072;28;20247;-77
2022/09/02 03:56:49;;;;;;;10.55;6.85;;;;;;;18.00;92.45;94335.72;5113498;28;20278;-78
2022/09/02 03:59:16;;;;;;;8.38;6.38;;;;;;;18.04;91.92;94347.47;5113463;28;20202;-78
2022/09/02 04:01:43;;;;;;;10.60;6.38;;;;;;;17.95;92.63;94343.50;5113250;28;20672;-78
2022/09/02 04:04:11;;;;;;;9.00;6.13;;;;;;;17.91;92.89;94345.41;5112610;28;20201;-78
2022/09/02 04:06:38;;;;;;;13.88;7.22;;;;;;;17.94;92.91;94358.38;5112656;28;20286;-78
2022/09/02 04:09:06;;;;;;;10.07;7.07;;;;;;;17.95;92.81;94354.47;5113165;28;20664;-78
2022/09/02 04:11:33;;;;;;;11.77;7.30;;;;;;;17.90;93.27;94357.56;5112936;28;20205;-78
2022/09/02 04:14:01;;;;;;;13.50;6.95;;;;;;;18.01;92.72;94364.69;5112631;28;20206;-78
2022/09/02 04:16:28;;;;;;;10.38;7.22;;;;;;;18.04;92.68;94366.66;5112805;28;20229;-79
2022/09/02 04:18:56;;;;;;;13.23;10.30;;;;;;;18.14;92.05;94373.41;5113252;28;20206;-78
2022/09/02 04:21:23;;;;;;;9.77;7.35;;;;;;;18.23;91.42;94368.34;5112867;28;20216;-79
2022/09/02 04:23:51;;;;;;;8.52;6.40;;;;;;;18.34;90.65;94371.16;5112882;28;20204;-78
2022/09/02 04:26:20;;;;;;;18.33;10.02;;;;;;;18.42;90.25;94365.34;5113125;28;20647;-77
2022/09/02 04:28:48;;;;;;;11.02;7.53;;;;;;;18.43;89.95;94369.66;5113214;28;20222;-78
2022/09/02 04:31:19;;;;;;;9.77;6.90;;;;;;;18.40;89.99;94367.69;5112571;28;20621;-79
2022/09/02 04:33:46;;;;;;;11.20;7.05;;;;;;;18.36;90.11;94380.59;5112717;28;20210;-78
2022/09/02 04:36:16;;;;;;;10.55;7.15;;;;;;;18.38;90.13;94372.75;5111738;28;20233;-78
2022/09/02 04:38:43;;;;;;;9.90;7.60;;;;;;;18.38;90.03;94367.28;5112659;28;20198;-79
2022/09/02 04:41:13;;;;;;;9.75;6.82;;;;;;;18.33;90.48;94381.34;5112726;28;20266;-79
2022/09/02 04:43:41;;;;;;;10.70;7.50;;;;;;;18.43;90.05;94380.63;5112289;28;20209;-78
2022/09/02 04:46:09;;;;;;;9.63;7.30;;;;;;;18.37;90.47;94393.13;5112622;27;20602;-79
2022/09/02 04:48:38;;;;;;;9.55;6.60;;;;;;;18.50;89.63;94390.06;5112396;28;20628;-78
2022/09/02 04:51:07;;;;;;;9.85;6.32;;;;;;;18.47;89.79;94391.59;5112652;28;20205;-79
2022/09/02 04:53:35;;;;;;;11.30;6.95;;;;;;;18.46;89.80;94385.34;5112675;28;20205;-78
2022/09/02 04:56:04;;;;;;;14.40;9.80;;;;;;;18.51;89.49;94388.91;5112075;28;20236;-78
2022/09/02 04:58:31;;;;;;;13.27;7.28;;;;;;;18.46;89.40;94385.34;5111869;28;20710;-78
2022/09/02 05:00:58;;;;;;;10.70;6.45;;;;;;;18.58;89.28;94391.69;5111604;28;20258;-79
2022/09/02 05:03:26;;;;;;;14.50;6.38;;;;;;;18.63;89.00;94388.59;5111774;28;20205;-79
2022/09/02 05:06:03;;;;;;;10.27;6.68;;;;;;;18.66;88.79;94382.34;5111509;28;20212;-77
2022/09/02 05:08:31;;;;;;;12.35;5.90;;;;;;;18.69;88.61;94382.38;5111523;28;20246;-78
2022/09/02 05:10:58;;;;;;;12.10;6.38;;;;;;;18.76;88.19;94381.59;5111695;28;20194;-78
2022/09/02 05:13:25;;;;;;;7.80;5.88;;;;;;;18.87;88.01;94387.91;5112364;28;20198;-78
2022/09/02 06:59:54;;;;;;;6.88;5.30;;;;;;;20.13;82.29;94412.53;5071774;28;20324;-79
2022/09/02 07:02:20;;;;;;;9.73;7.13;;;;;;;20.10;81.12;94410.56;5089964;28;20206;-79
2022/09/02 07:07:31;;;;;;;7.95;6.82;;;;;;;20.33;81.22;94416.44;5089740;28;20220;-79
2022/09/02 07:09:58;;;;;;;9.32;7.22;;;;;;;20.45;81.06;94418.81;5089346;28;20246;-80
2022/09/02 07:12:26;;;;;;;12.00;7.32;;;;;;;20.54;80.76;94415.66;5089643;28;20258;-80
2022/09/02 07:14:54;;;;;;;8.00;5.82;;;;;;;20.63;80.35;94423.50;5090370;28;20213;-80
2022/09/02 07:17:22;;;;;;;9.90;5.60;;;;;;;20.73;80.48;94422.69;5089791;28;20233;-81
2022/09/02 07:19:49;;;;;;;8.30;6.55;;;;;;;20.60;81.33;94418.81;5089369;28;20202;-81
2022/09/02 07:22:16;;;;;;;8.25;6.47;;;;;;;20.70;79.20;94412.47;5090171;28;20221;-81
2022/09/02 07:24:43;;;;;;;8.52;5.97;;;;;;;20.58;76.95;94428.25;5089678;28;20279;-80
2022/09/02 07:27:11;;;;;;;6.65;4.65;;;;;;;20.71;79.01;94427.81;5089279;28;20222;-81
2022/09/02 07:29:40;;;;;;;5.50;4.97;;;;;;;20.72;79.00;94429.38;5093925;28;20304;-80
2022/09/02 07:32:08;;;;;;;6.40;5.65;;;;;;;20.81;76.85;94424.25;5109766;28;20241;-80
2022/09/02 07:34:35;;;;;;;9.63;6.20;;;;;;;21.01;77.24;94428.13;5110462;28;20197;-81
2022/09/02 07:37:02;;;;;;;8.52;5.93;;;;;;;21.22;77.50;94430.81;5109826;28;20252;-81
2022/09/02 07:39:29;;;;;;;6.00;5.38;;;;;;;21.32;76.90;94428.44;5110017;28;20263;-81
2022/09/02 07:41:56;;;;;;;5.35;4.85;;;;;;;21.27;74.73;94424.91;5109930;28;20225;-81
2022/09/02 07:44:23;;;;;;;6.50;5.40;;;;;;;21.21;76.13;94420.97;5109627;28;20205;-80
2022/09/02 07:46:51;;;;;;;5.78;4.95;;;;;;;21.16;74.65;94429.66;5109970;28;20594;-81
2022/09/02 07:49:20;;;;;;;5.97;5.22;;;;;;;21.35;75.81;94422.09;5109533;28;20309;-80
2022/09/02 07:51:49;;;;;;;8.82;4.28;;;;;;;21.52;77.00;94421.22;5109726;28;20239;-81
2022/09/02 07:54:17;;;;;;;7.78;5.13;;;;;;;21.79;75.78;94425.00;5110104;28;20201;-80
2022/09/02 07:56:44;;;;;;;8.60;5.90;;;;;;;22.02;74.69;94435.50;5109377;28;20231;-80
2022/09/02 07:59:11;;;;;;;6.20;5.53;;;;;;;22.36;73.17;94424.59;5109950;28;20262;-80
2022/09/02 08:01:38;;;;;;;6.07;4.63;;;;;;;22.26;72.86;94428.25;5109533;28;20287;-80
2022/09/02 08:04:06;;;;;;;8.57;5.55;;;;;;;21.96;72.26;94437.09;5109601;28;20194;-80
2022/09/02 08:06:34;;;;;;;6.22;5.10;;;;;;;21.93;71.81;94444.22;5109812;28;20305;-80
2022/09/02 08:09:01;;;;;;;8.18;5.85;;;;;;;21.58;72.49;94444.44;5109582;28;20194;-80
2022/09/02 08:11:28;;;;;;;7.82;5.50;;;;;;;21.71;74.11;94448.31;5110269;28;20664;-79
2022/09/02 08:13:55;;;;;;;9.55;5.47;;;;;;;21.80;74.14;94451.38;5112975;28;20309;-80
2022/09/02 08:16:22;;;;;;;9.15;5.10;;;;;;;22.01;72.95;94450.47;5112915;28;20225;-79
2022/09/02 08:18:50;;;;;;;5.90;5.30;;;;;;;22.23;71.96;94451.13;5113411;28;20202;-80
2022/09/02 08:21:17;;;;;;;5.80;4.43;;;;;;;22.35;70.44;94445.09;5112651;28;20237;-79
2022/09/02 08:23:50;;;;;;;5.38;4.40;;;;;;;22.28;71.67;94436.88;5113595;28;20244;-80
2022/09/02 08:26:17;;;;;;;6.13;4.63;;;;;;;22.55;71.45;94446.09;5113366;28;20236;-78
2022/09/02 08:28:44;;;;;;;6.85;4.88;;;;;;;22.45;71.29;94446.97;5112907;28;20225;-78
2022/09/02 08:31:11;;;;;;;6.40;4.53;;;;;;;22.45;70.89;94452.50;5112878;28;20198;-78
2022/09/02 08:33:38;;;;;;;7.97;5.57;;;;;;;22.48;70.42;94450.91;5112901;28;20201;-78
2022/09/02 08:36:07;;;;;;;7.63;6.35;;;;;;;22.45;71.16;94446.97;5112198;28;20618;-78
2022/09/02 08:38:36;;;;;;;10.50;7.00;;;;;;;22.46;71.22;94445.78;5112997;28;20221;-79
2022/09/02 08:41:12;;;;;;;8.65;6.80;;;;;;;22.15;71.73;94449.59;5112374;28;20309;-78
2022/09/02 08:43:41;;;;;;;9.52;7.07;;;;;;;22.09;71.53;94445.72;5112540;28;20190;-78
2022/09/02 08:46:13;;;;;;;11.45;7.72;;;;;;;22.13;72.35;94438.19;5112166;27;20234;-80
2022/09/02 08:48:44;;;;;;;8.65;6.95;;;;;;;22.23;71.87;94443.63;5112144;28;20193;-80
2022/09/02 08:51:16;;;;;;;11.05;7.13;;;;;;;22.38;72.28;94438.78;5111574;28;20475;-78
2022/09/02 08:53:50;;;;;;;9.93;6.78;;;;;;;22.51;70.88;94439.06;5111658;28;20243;-80
2022/09/02 08:56:18;;;;;;;10.70;7.45;;;;;;;22.60;70.33;94426.34;5112113;28;20285;-79
2022/09/02 08:58:51;;;;;;;10.07;7.10;;;;;;;23.02;70.21;94419.59;5112543;28;20760;-79
2022/09/02 09:01:25;;;;;;;10.02;6.60;;;;;;;22.62;69.97;94429.47;5112291;28;20234;-78
2022/09/02 09:04:18;;;;;;;9.90;6.82;;;;;;;22.70;69.96;94436.50;5112342;28;20612;-79
2022/09/02 09:07:09;;;;;;;9.48;7.15;;;;;;;22.65;70.44;94428.66;5108531;28;20703;-79
2022/09/02 09:09:48;;;;;;;11.25;6.93;;;;;;;22.77;71.07;94424.63;5111025;28;20200;-79
2022/09/02 09:12:29;;;;;;;10.15;7.20;;;;;;;22.95;69.78;94419.72;5111903;28;20190;-79
2022/09/02 09:15:03;;;;;;;9.70;7.50;;;;;;;23.31;69.02;94414.53;5112198;28;20242;-79
2022/09/02 09:17:35;;;;;;;12.32;8.30;;;;;;;23.42;68.09;94419.13;5112073;28;20249;-79
2022/09/02 09:20:08;;;;;;;11.07;8.00;;;;;;;23.53;67.97;94414.28;5112103;28;20186;-79
2022/09/02 09:22:38;;;;;;;10.00;7.75;;;;;;;23.95;66.43;94408.13;5111075;28;20272;-79
2022/09/02 09:25:10;;;;;;;11.60;8.50;;;;;;;23.84;66.02;94417.78;5111985;28;20201;-79
2022/09/02 09:27:38;;;;;;;9.95;7.95;;;;;;;24.22;65.09;94404.53;5112111;28;20218;-80
2022/09/02 09:30:08;;;;;;;12.48;8.30;;;;;;;24.89;64.20;94402.59;5111378;28;20194;-78
2022/09/02 09:32:38;;;;;;;10.38;8.10;;;;;;;25.76;61.08;94398.50;5111789;28;20198;-79
2022/09/02 09:35:08;;;;;;;11.13;9.07;;;;;;;26.12;60.23;94399.22;5111382;28;20547;-78
2022/09/02 09:37:37;;;;;;;11.05;8.60;;;;;;;25.28;61.15;94402.66;5111437;28;20229;-78
2022/09/02 09:40:24;;;;;;;12.55;8.50;;;;;;;24.54;64.15;94402.06;5111361;28;20197;-78
2022/09/02 09:42:56;;;;;;;11.73;8.80;;;;;;;24.36;63.69;94398.81;5111161;28;20222;-79
2022/09/02 09:45:31;;;;;;;12.25;8.63;;;;;;;24.75;62.67;94398.88;5111247;28;20186;-79
2022/09/02 09:48:22;;;;;;;12.57;8.48;;;;;;;24.76;62.03;94400.47;5111125;28;20185;-78
2022/09/02 09:51:10;;;;;;;13.63;8.75;;;;;;;24.54;61.83;94390.97;5111613;28;20197;-79
2022/09/02 09:53:37;;;;;;;12.25;8.52;;;;;;;24.92;60.70;94398.97;5110837;28;20208;-79
2022/09/02 09:56:06;;;;;;;10.63;8.85;;;;;;;25.45;60.12;94401.50;5111000;28;20205;-80
2022/09/02 09:58:43;;;;;;;11.02;8.55;;;;;;;25.27;60.21;94395.56;5110350;28;20225;-80
2022/09/02 10:01:18;;;;;;;12.05;8.50;;;;;;;25.65;59.08;94398.72;5110234;28;20236;-79
2022/09/02 10:03:51;;;;;;;9.65;7.72;;;;;;;24.30;62.57;94406.03;5111399;28;20219;-79
2022/09/02 10:06:21;;;;;;;12.25;8.38;;;;;;;24.14;62.96;94405.88;5111152;28;20309;-81
2022/09/02 10:08:54;;;;;;;11.15;8.70;;;;;;;24.30;63.09;94417.13;5111084;28;20201;-80
2022/09/02 10:11:24;;;;;;;10.48;8.48;;;;;;;23.96;63.82;94409.69;5111226;28;20189;-80
2022/09/02 10:13:58;;;;;;;12.85;8.57;;;;;;;23.80;63.86;94411.53;5110086;28;20186;-79
2022/09/02 10:16:46;;;;;;;8.93;7.80;;;;;;;24.32;62.31;94403.63;5110989;28;20197;-79
2022/09/02 10:19:25;;;;;;;10.32;8.60;;;;;;;24.52;61.47;94400.91;5110585;28;20193;-79
2022/09/02 10:22:28;;;;;;;11.18;8.27;;;;;;;24.28;62.19;94392.63;5110598;28;20192;-80
2022/09/02 10:25:08;;;;;;;10.57;8.35;;;;;;;23.94;64.15;94395.50;5110559;28;20197;-78
2022/09/02 10:27:40;;;;;;;11.23;8.23;;;;;;;24.20;62.50;94395.88;5110409;28;20225;-78
2022/09/02 10:30:17;;;;;;;10.52;8.27;;;;;;;24.47;62.64;94407.69;5110226;28;20193;-78
2022/09/02 10:33:20;;;;;;;10.70;8.63;;;;;;;24.38;61.54;94401.94;5110592;28;20186;-78
2022/09/02 10:35:52;;;;;;;8.63;7.35;;;;;;;24.63;60.16;94402.28;5110037;28;20197;-78
2022/09/02 10:38:33;;;;;;;11.05;8.50;;;;;;;24.48;61.01;94406.50;5110281;28;20278;-79
2022/09/02 10:41:07;;;;;;;12.95;9.07;;;;;;;25.10;59.99;94413.31;5110532;28;20244;-78
2022/09/02 10:43:54;;;;;;;15.13;9.48;;;;;;;24.40;61.68;94402.31;5109796;28;20617;-79
2022/09/02 10:46:24;;;;;;;13.13;9.02;;;;;;;24.23;62.02;94406.16;5110002;28;20193;-78
2022/09/02 10:49:01;;;;;;;13.13;9.02;;;;;;;24.77;60.89;94406.78;5110629;28;20193;-79
2022/09/02 10:51:38;;;;;;;9.85;8.35;;;;;;;25.35;58.58;94402.50;5110629;28;20189;-79
2022/09/02 10:54:20;;;;;;;10.60;8.85;;;;;;;26.16;56.42;94393.59;5110557;28;20279;-80
2022/09/02 10:56:52;;;;;;;12.98;8.82;;;;;;;26.45;55.71;94402.03;5109676;28;20250;-80
2022/09/02 10:59:23;;;;;;;11.80;9.23;;;;;;;27.11;53.42;94392.38;5110334;28;20193;-79
2022/09/02 11:01:56;;;;;;;12.10;9.55;;;;;;;27.20;53.32;94393.28;5110051;28;20632;-80
2022/09/02 11:04:31;;;;;;;9.82;8.60;;;;;;;26.89;53.80;94379.03;5110246;28;20246;-80
2022/09/02 11:07:00;;;;;;;14.95;10.05;;;;;;;26.43;54.95;94393.34;5110152;28;20776;-80
2022/09/02 11:09:32;;;;;;;14.00;9.10;;;;;;;26.40;55.02;94392.22;5110233;28;20194;-79
2022/09/02 11:12:07;;;;;;;13.45;9.75;;;;;;;25.86;57.29;94386.34;5110072;28;20268;-79
2022/09/02 11:14:40;;;;;;;12.05;10.00;;;;;;;26.57;55.60;94378.31;5110021;28;20277;-80
2022/09/02 11:17:18;;;;;;;14.15;9.32;;;;;;;26.66;55.11;94376.47;5109536;28;20635;-78
2022/09/02 11:19:51;;;;;;;16.25;10.98;;;;;;;25.86;56.61;94383.56;5109118;28;20648;-80
2022/09/02 11:22:26;;;;;;;16.23;10.85;;;;;;;25.94;56.66;94379.44;5109257;28;20304;-80
2022/09/02 11:25:00;;;;;;;14.30;11.40;;;;;;;26.02;56.81;94378.03;5109306;28;20185;-77
2022/09/02 11:27:34;;;;;;;16.70;11.35;;;;;;;25.01;58.90;94377.84;5109557;28;20229;-80
2022/09/02 11:30:03;;;;;;;16.05;11.93;;;;;;;25.18;59.52;94375.91;5109943;28;20242;-80
2022/09/02 11:32:38;;;;;;;14.68;11.38;;;;;;;25.21;58.90;94372.28;5110080;28;20209;-80
2022/09/02 11:35:10;;;;;;;14.95;11.50;;;;;;;25.59;58.79;94371.88;5110259;28;20204;-80
2022/09/02 11:37:41;;;;;;;14.90;10.85;;;;;;;25.49;59.02;94368.91;5110156;28;20217;-78
2022/09/02 11:40:13;;;;;;;14.82;12.07;;;;;;;25.75;58.20;94358.84;5109621;28;20219;-78
2022/09/02 11:42:58;;;;;;;19.02;11.63;;;;;;;26.48;54.93;94357.50;5110160;28;20686;-78
2022/09/02 11:45:43;;;;;;;13.65;10.68;;;;;;;26.85;54.87;94350.53;5109176;28;20194;-78
2022/09/02 11:48:43;;;;;;;16.33;12.27;;;;;;;27.02;54.29;94336.63;5113440;28;20190;-79
2022/09/02 11:51:45;;;;;;;14.40;11.52;;;;;;;27.49;53.28;94332.03;5107766;28;20243;-79
2022/09/02 11:54:17;;;;;;;15.23;11.00;;;;;;;27.17;53.93;94335.78;5080155;28;20659;-79
2022/09/02 11:56:47;;;;;;;16.05;11.65;;;;;;;26.55;55.28;94337.84;5113695;28;20186;-79
2022/09/02 11:59:20;;;;;;;15.90;11.45;;;;;;;26.92;55.35;94333.66;5113230;28;20251;-80
2022/09/02 12:01:50;;;;;;;14.68;11.35;;;;;;;27.25;55.27;94333.56;5113533;28;20186;-79
2022/09/02 12:04:25;;;;;;;14.38;11.68;;;;;;;27.58;53.34;94339.75;5113527;28;20209;-78
2022/09/02 12:07:23;;;;;;;13.95;11.50;;;;;;;27.05;54.18;94341.31;5113215;28;20221;-78
2022/09/02 12:09:53;;;;;;;13.88;11.07;;;;;;;26.44;55.71;94353.25;5113228;28;20317;-78
2022/09/02 12:13:00;;;;;;;16.10;11.70;;;;;;;25.48;57.35;94358.25;5113926;28;20209;-78
2022/09/02 12:15:27;;;;;;;16.73;11.95;;;;;;;25.90;57.72;94350.19;5107782;28;20694;-78
2022/09/02 12:18:14;;;;;;;14.18;10.98;;;;;;;25.86;56.84;94347.50;5112996;28;20225;-78
2022/09/02 12:21:10;;;;;;;14.65;11.23;;;;;;;25.87;56.72;94349.06;5102118;28;20190;-78
2022/09/02 12:24:09;;;;;;;13.82;11.48;;;;;;;26.23;56.07;94342.66;5112625;28;20194;-79
2022/09/02 12:27:24;;;;;;;13.43;10.52;;;;;;;27.25;53.91;94323.22;5112762;28;20217;-79
2022/09/02 12:29:52;;;;;;;16.70;10.43;;;;;;;27.13;55.68;94326.75;5048915;28;20188;-78
2022/09/02 12:32:55;;;;;;;15.23;10.55;;;;;;;26.76;54.91;94330.94;5082329;28;20225;-77
2022/09/02 12:35:50;;;;;;;13.77;11.27;;;;;;;27.13;53.69;94320.41;5085111;28;20722;-78
2022/09/02 12:38:46;;;;;;;16.23;10.85;;;;;;;27.05;54.04;94307.94;5092060;28;20295;-76
2022/09/02 12:41:23;;;;;;;14.95;10.27;;;;;;;26.70;55.21;94309.69;5071512;28;20222;-77
2022/09/02 12:44:22;;;;;;;14.48;10.93;;;;;;;26.56;55.94;94308.06;5092437;28;20186;-78
2022/09/02 12:47:03;;;;;;;15.00;11.93;;;;;;;25.87;57.01;94314.97;5106337;27;20238;-81
2022/09/02 12:49:49;;;;;;;12.75;10.65;;;;;;;25.91;57.21;94313.69;5133295;27;20193;-79
2022/09/02 12:52:50;;;;;;;13.50;11.13;;;;;;;26.10;56.36;94298.91;5132774;27;20715;-80
2022/09/02 12:55:23;;;;;;;12.25;10.73;;;;;;;26.33;55.50;94299.97;5048909;28;20184;-79
2022/09/02 12:57:52;;;;;;;14.27;11.13;;;;;;;26.50;55.55;94298.72;5048375;28;20773;-80
2022/09/02 13:00:31;;;;;;;12.55;10.93;;;;;;;26.60;55.12;94289.31;5089820;27;20232;-79
2022/09/02 13:03:10;;;;;;;15.30;11.52;;;;;;;26.17;56.57;94301.50;5132682;27;20555;-80
2022/09/02 13:05:53;;;;;;;15.68;11.52;;;;;;;25.80;57.91;94302.84;5132446;27;20752;-79
2022/09/02 13:08:44;;;;;;;15.57;12.18;;;;;;;25.38;58.97;94306.56;5132984;27;20189;-80
2022/09/02 13:11:43;;;;;;;17.13;12.13;;;;;;;24.75;60.07;94301.91;5132646;27;20280;-79
2022/09/02 13:14:45;;;;;;;15.05;12.60;;;;;;;24.79;60.97;94299.06;5132736;27;20250;-80
2022/09/02 13:17:27;;;;;;;15.15;11.70;;;;;;;24.87;60.14;94299.72;5131998;27;20212;-79
2022/09/02 13:20:27;;;;;;;16.13;12.30;;;;;;;24.76;60.09;94311.78;5132816;27;20200;-80
2022/09/02 13:23:08;;;;;;;15.07;12.73;;;;;;;24.57;60.85;94304.28;5105656;27;20253;-79
2022/09/02 13:25:50;;;;;;;17.50;12.27;;;;;;;24.30;61.59;94306.38;5132114;27;20187;-78
2022/09/02 13:28:36;;;;;;;14.95;11.88;;;;;;;24.15;63.23;94296.72;5131970;27;20724;-79
2022/09/02 13:31:19;;;;;;;17.48;12.45;;;;;;;23.97;63.60;94299.78;5115137;27;20198;-79
2022/09/02 13:33:46;;;;;;;18.85;14.70;;;;;;;24.01;66.36;94301.31;5111221;28;20526;-79
2022/09/02 13:36:24;;;;;;;20.40;14.27;;;;;;;23.72;68.68;94300.19;5111508;28;20232;-80
2022/09/02 13:38:51;;;;;;;19.48;14.27;;;;;;;23.33;72.33;94307.09;5111315;28;20785;-80